Terminal Aerodrome Forecast
Issued by NWS Bismarck, ND

Home | Current Version | Previous Version | Text Only | Print | Product List | Glossary Off
Versions: 1 2 3 4 5 6 7 8 9 10 11 12 13 14 15 16 17 18 19 20

000
FTUS43 KBIS 231720
TAFBIS
TAF
KBIS 231720Z 2318/2418 32019G31KT P6SM BKN050
     FM240000 33013KT P6SM FEW050 FEW200
     FM240600 29007KT P6SM FEW040 FEW200
     FM241500 32016G25KT P6SM FEW035 FEW200=

USA.gov is the U.S. government's official web portal to all federal, state and local government web resources and services.